createdAt,value
2018-06-25T00:02:12.489Z,7.57
2018-06-25T00:04:40.786Z,8.87
2018-06-25T00:07:09.069Z,7.57
2018-06-25T00:09:37.532Z,7.17
2018-06-25T00:12:05.955Z,7.63
2018-06-25T00:14:34.438Z,7.87
2018-06-25T00:17:02.728Z,7.30
2018-06-25T00:19:30.998Z,8.57
2018-06-25T00:21:59.302Z,7.73
2018-06-25T00:24:27.609Z,8.33
2018-06-25T00:26:55.858Z,9.80
2018-06-25T00:29:24.093Z,9.83
2018-06-25T00:31:52.617Z,10.30
2018-06-25T00:34:21.093Z,10.20
2018-06-25T00:36:49.567Z,6.70
2018-06-25T00:39:17.868Z,7.57
2018-06-25T00:41:46.595Z,9.97
2018-06-25T00:44:15.186Z,6.90
2018-06-25T00:46:43.568Z,9.13
2018-06-25T00:49:11.875Z,7.00
2018-06-25T00:51:40.246Z,8.37
2018-06-25T00:54:08.983Z,8.40
2018-06-25T00:56:37.525Z,8.37
2018-06-25T00:59:17.425Z,9.03
2018-06-25T01:01:45.708Z,7.53
2018-06-25T01:04:14.054Z,9.20
2018-06-25T01:06:42.575Z,8.47
2018-06-25T01:09:12.161Z,8.73
2018-06-25T01:11:40.633Z,9.60
2018-06-25T01:14:09.043Z,9.20
2018-06-25T01:16:37.199Z,9.50
2018-06-25T01:19:05.489Z,13.37
2018-06-25T01:21:33.857Z,9.67
2018-06-25T01:24:02.697Z,10.67
2018-06-25T01:26:31.036Z,9.47
2018-06-25T01:28:59.564Z,9.60
2018-06-25T01:31:27.891Z,9.13
2018-06-25T01:33:56.134Z,9.00
2018-06-25T01:36:24.422Z,8.60
2018-06-25T01:38:52.740Z,8.10
2018-06-25T01:41:21.342Z,8.43
2018-06-25T01:43:49.664Z,8.70
2018-06-25T01:46:17.934Z,7.97
2018-06-25T01:48:46.338Z,9.53
2018-06-25T01:51:15.223Z,9.13
2018-06-25T01:53:43.858Z,10.67
2018-06-25T01:56:12.292Z,9.37
2018-06-25T01:58:40.628Z,9.90
2018-06-25T02:01:08.972Z,8.47
2018-06-25T02:03:37.231Z,8.10
2018-06-25T02:06:05.516Z,8.13
2018-06-25T02:08:33.835Z,8.43
2018-06-25T02:11:02.387Z,9.93
2018-06-25T02:13:30.721Z,8.83
2018-06-25T02:15:59.006Z,10.73
2018-06-25T02:18:27.731Z,9.87
2018-06-25T02:20:56.024Z,10.00
2018-06-25T02:23:24.569Z,9.00
2018-06-25T02:25:52.824Z,8.60
2018-06-25T02:28:21.107Z,8.53
2018-06-25T02:30:49.406Z,9.80
2018-06-25T02:33:17.464Z,8.53
2018-06-25T02:35:46.086Z,10.13
2018-06-25T02:38:14.528Z,10.50
2018-06-25T02:40:43.007Z,9.60
2018-06-25T02:43:11.504Z,10.03
2018-06-25T02:45:39.831Z,13.50
2018-06-25T02:48:08.111Z,9.00
2018-06-25T02:50:36.605Z,10.33
2018-06-25T02:53:05.054Z,9.47
2018-06-25T02:55:33.512Z,8.53
2018-06-25T02:58:01.849Z,9.03
2018-06-25T03:00:30.276Z,10.27
2018-06-25T03:02:58.779Z,11.10
2018-06-25T03:05:27.112Z,9.90
2018-06-25T03:07:55.558Z,9.73
2018-06-25T03:10:23.919Z,9.30
2018-06-25T03:12:52.673Z,10.40
2018-06-25T03:15:21.088Z,10.70
2018-06-25T03:17:49.659Z,10.27
2018-06-25T03:20:17.970Z,9.33
2018-06-25T03:22:46.270Z,9.73
2018-06-25T03:25:14.556Z,8.97
2018-06-25T03:27:42.856Z,12.37
2018-06-25T03:30:11.110Z,11.87
2018-06-25T03:32:39.631Z,10.23
2018-06-25T03:35:07.938Z,8.80
2018-06-25T03:37:36.509Z,9.83
2018-06-25T03:40:04.777Z,8.73
2018-06-25T03:42:33.153Z,8.53
2018-06-25T03:45:01.647Z,8.30
2018-06-25T03:47:29.938Z,8.10
2018-06-25T03:49:58.253Z,9.57
2018-06-25T03:52:26.620Z,8.53
2018-06-25T03:54:54.884Z,10.73
2018-06-25T03:57:23.171Z,14.80
2018-06-25T03:59:52.226Z,9.37
2018-06-25T04:02:20.920Z,9.77
2018-06-25T04:04:49.184Z,9.73
2018-06-25T04:07:17.492Z,8.77
2018-06-25T04:09:45.755Z,9.57
2018-06-25T04:12:14.118Z,8.90
2018-06-25T04:14:42.597Z,6.60
2018-06-25T04:17:10.842Z,7.33
2018-06-25T04:19:39.309Z,6.93
2018-06-25T04:22:07.638Z,7.33
2018-06-25T04:24:35.959Z,9.67
2018-06-25T04:27:04.497Z,6.70
2018-06-25T04:29:32.785Z,8.43
2018-06-25T04:32:01.101Z,15.47
2018-06-25T04:34:30.021Z,18.05
2018-06-25T04:36:58.058Z,11.80
2018-06-25T04:39:26.334Z,8.13
2018-06-25T04:41:54.818Z,9.70
2018-06-25T04:44:23.258Z,7.90
2018-06-25T04:46:51.659Z,8.20
2018-06-25T04:49:20.828Z,7.47
2018-06-25T04:51:49.121Z,9.13
2018-06-25T04:54:17.465Z,7.53
2018-06-25T04:56:45.857Z,6.73
2018-06-25T04:59:14.623Z,7.03
2018-06-25T05:01:43.033Z,7.07
2018-06-25T05:04:11.339Z,8.43
2018-06-25T05:06:39.671Z,9.53
2018-06-25T05:09:09.333Z,8.17
2018-06-25T05:11:37.607Z,6.80
2018-06-25T05:14:05.954Z,5.80
2018-06-25T05:16:34.274Z,6.20
2018-06-25T05:19:02.616Z,6.53
2018-06-25T05:21:31.084Z,7.67
2018-06-25T05:23:59.408Z,7.00
2018-06-25T05:26:27.724Z,9.27
2018-06-25T05:28:55.958Z,6.53
2018-06-25T05:31:24.275Z,8.13
2018-06-25T05:33:52.570Z,7.77
2018-06-25T05:36:20.865Z,7.43
2018-06-25T05:38:49.872Z,7.47
2018-06-25T05:41:18.049Z,7.90
2018-06-25T05:43:46.338Z,7.17
2018-06-25T05:46:14.615Z,6.30
2018-06-25T05:48:43.043Z,5.80
2018-06-25T05:51:11.307Z,5.63
2018-06-25T05:53:40.410Z,7.43
2018-06-25T05:56:08.832Z,6.40
2018-06-25T05:58:37.113Z,6.97
2018-06-25T06:01:05.436Z,8.27
2018-06-25T06:03:33.782Z,8.50
2018-06-25T06:06:02.097Z,6.37
2018-06-25T06:08:30.432Z,6.60
2018-06-25T06:10:58.724Z,6.50
2018-06-25T06:13:27.009Z,10.00
2018-06-25T06:15:55.815Z,7.60
2018-06-25T06:18:24.097Z,6.73
2018-06-25T06:20:52.438Z,9.73
2018-06-25T06:23:20.738Z,6.80
2018-06-25T06:25:49.018Z,8.07
2018-06-25T06:28:17.293Z,8.17
2018-06-25T06:30:45.582Z,11.83
2018-06-25T06:33:14.119Z,6.50
2018-06-25T06:35:42.395Z,6.40
2018-06-25T06:38:10.698Z,7.40
2018-06-25T06:40:39.029Z,7.33
2018-06-25T06:43:07.467Z,7.33
2018-06-25T06:45:35.841Z,7.80
2018-06-25T06:48:04.448Z,8.37
2018-06-25T06:50:32.671Z,8.70
2018-06-25T06:53:00.940Z,8.97
2018-06-25T06:55:29.978Z,7.80
2018-06-25T06:57:58.244Z,10.23
2018-06-25T07:00:26.978Z,7.63
2018-06-25T07:02:55.257Z,10.77
2018-06-25T07:05:23.748Z,9.13
2018-06-25T07:07:52.109Z,8.00
2018-06-25T07:10:21.959Z,8.30
2018-06-25T07:12:50.450Z,8.97
2018-06-25T07:15:18.842Z,6.80
2018-06-25T07:17:47.112Z,8.13
2018-06-25T07:20:15.413Z,8.73
2018-06-25T07:22:43.716Z,7.97
2018-06-25T07:25:12.010Z,9.40
2018-06-25T07:27:40.373Z,6.97
2018-06-25T07:30:09.463Z,7.57
2018-06-25T07:32:37.794Z,5.33
2018-06-25T07:35:06.363Z,7.27
2018-06-25T07:37:34.963Z,11.07
2018-06-25T07:40:03.528Z,7.63
2018-06-25T07:42:32.027Z,6.40
2018-06-25T07:45:00.305Z,6.77
2018-06-25T07:47:28.819Z,8.50
2018-06-25T07:49:57.111Z,7.93
2018-06-25T07:52:26.027Z,6.40
2018-06-25T07:54:54.662Z,7.57
2018-06-25T07:57:22.997Z,7.13
2018-06-25T07:59:51.340Z,5.87
2018-06-25T08:02:19.769Z,5.73
2018-06-25T08:04:48.086Z,4.63
2018-06-25T08:07:16.360Z,5.13
2018-06-25T08:09:44.832Z,4.33
2018-06-25T08:12:13.155Z,6.70
2018-06-25T08:14:41.788Z,3.90
2018-06-25T08:17:10.177Z,4.30
2018-06-25T08:19:38.899Z,4.47
2018-06-25T08:22:07.785Z,4.17
2018-06-25T08:24:36.387Z,5.97
2018-06-25T08:27:04.871Z,9.70
2018-06-25T08:29:33.233Z,4.47
2018-06-25T08:32:01.775Z,5.57
2018-06-25T08:34:30.205Z,10.47
2018-06-25T08:36:58.887Z,6.43
2018-06-25T08:39:27.445Z,9.80
2018-06-25T08:41:55.820Z,6.50
2018-06-25T08:44:24.102Z,6.07
2018-06-25T08:46:52.489Z,6.73
2018-06-25T08:49:20.882Z,3.80
2018-06-25T08:51:49.196Z,3.77
2018-06-25T08:54:18.727Z,4.00
2018-06-25T08:56:47.116Z,2.60
2018-06-25T08:59:15.721Z,3.90
2018-06-25T09:01:44.043Z,2.67
2018-06-25T09:04:12.338Z,3.97
2018-06-25T09:06:40.817Z,2.50
2018-06-25T09:09:10.782Z,7.03
2018-06-25T09:11:39.213Z,2.97
2018-06-25T09:14:08.299Z,3.43
2018-06-25T09:16:37.258Z,6.23
2018-06-25T09:19:05.753Z,5.87
2018-06-25T09:21:34.061Z,3.27
2018-06-25T09:24:02.434Z,6.30
2018-06-25T09:26:30.987Z,7.90
2018-06-25T09:28:59.335Z,4.27
2018-06-25T09:31:27.748Z,4.00
2018-06-25T09:33:56.096Z,5.67
2018-06-25T09:36:24.370Z,7.17
2018-06-25T09:38:52.952Z,4.30
2018-06-25T09:41:21.485Z,7.73
2018-06-25T09:43:49.869Z,4.93
2018-06-25T09:46:18.134Z,3.67
2018-06-25T09:48:46.459Z,4.20
2018-06-25T09:51:14.954Z,4.43
2018-06-25T09:53:43.279Z,5.17
2018-06-25T09:56:11.592Z,7.00
2018-06-25T09:58:40.259Z,3.30
2018-06-25T10:01:14.480Z,4.43
2018-06-25T10:03:42.890Z,3.10
2018-06-25T10:06:11.455Z,5.30
2018-06-25T10:08:40.209Z,5.63
2018-06-25T10:11:08.634Z,3.37
2018-06-25T10:13:36.913Z,3.00
2018-06-25T10:16:05.259Z,2.47
2018-06-25T10:18:33.557Z,2.60
2018-06-25T10:21:01.889Z,3.13
2018-06-25T10:23:30.213Z,3.20
2018-06-25T10:25:58.694Z,2.60
2018-06-25T10:28:27.058Z,3.93
2018-06-25T10:30:56.067Z,3.70
2018-06-25T10:33:24.865Z,3.90
2018-06-25T10:35:53.409Z,4.70
2018-06-25T10:38:21.922Z,2.47
2018-06-25T10:40:50.447Z,2.60
2018-06-25T10:43:18.932Z,2.77
2018-06-25T10:45:47.748Z,3.20
2018-06-25T10:48:16.126Z,2.80
2018-06-25T10:50:44.468Z,2.33
2018-06-25T10:53:12.936Z,2.67
2018-06-25T10:55:42.060Z,2.53
2018-06-25T10:58:10.436Z,2.33
2018-06-25T11:00:39.018Z,2.33
2018-06-25T11:03:07.400Z,3.20
2018-06-25T11:05:35.943Z,3.43
2018-06-25T11:08:05.032Z,7.77
2018-06-25T11:10:33.903Z,2.65
2018-06-25T11:13:02.457Z,2.13
2018-06-25T11:15:30.943Z,3.27
2018-06-25T11:17:59.507Z,1.70
2018-06-25T11:20:27.887Z,2.10
2018-06-25T11:22:56.233Z,2.70
2018-06-25T11:25:24.591Z,3.37
2018-06-25T11:27:52.885Z,2.77
2018-06-25T11:30:21.303Z,2.20
2018-06-25T11:32:49.624Z,2.20
2018-06-25T11:35:18.106Z,2.80
2018-06-25T11:37:46.748Z,4.20
2018-06-25T11:40:15.118Z,2.50
2018-06-25T11:42:43.606Z,3.53
2018-06-25T11:45:12.246Z,1.90
2018-06-25T11:47:44.252Z,5.00
2018-06-25T11:50:13.219Z,4.27
2018-06-25T11:52:41.383Z,5.63
2018-06-25T11:55:09.938Z,2.20
2018-06-25T11:57:41.064Z,2.23
2018-06-25T12:00:13.197Z,2.97
2018-06-25T12:02:44.808Z,21.37
2018-06-25T12:05:16.423Z,2.00
2018-06-25T12:07:48.448Z,2.90
2018-06-25T12:10:20.248Z,2.83
2018-06-25T12:12:51.865Z,2.80
2018-06-25T12:15:23.591Z,2.27
2018-06-25T12:17:54.060Z,2.63
2018-06-25T12:20:23.264Z,3.53
2018-06-25T12:22:53.690Z,11.30
2018-06-25T12:25:24.774Z,7.20
2018-06-25T12:27:55.264Z,10.40
2018-06-25T12:30:26.073Z,3.90
2018-06-25T12:32:56.817Z,4.87
2018-06-25T12:35:27.761Z,1.83
2018-06-25T12:37:58.318Z,4.27
2018-06-25T12:40:28.366Z,4.12
2018-06-25T12:42:57.045Z,3.70
2018-06-25T12:45:25.388Z,4.97
2018-06-25T12:47:55.490Z,1.57
2018-06-25T12:50:24.170Z,1.57
2018-06-25T12:52:52.771Z,1.97
2018-06-25T12:55:21.136Z,1.73
2018-06-25T12:57:49.650Z,1.40
2018-06-25T13:00:17.902Z,2.10
2018-06-25T13:02:46.226Z,1.20
2018-06-25T13:05:14.749Z,1.50
2018-06-25T13:07:43.077Z,1.47
2018-06-25T13:10:11.578Z,1.70
2018-06-25T13:12:40.114Z,1.77
2018-06-25T13:15:08.878Z,2.20
2018-06-25T13:17:37.433Z,2.20
2018-06-25T13:20:06.025Z,3.00
2018-06-25T13:22:36.897Z,2.63
2018-06-25T13:25:06.893Z,2.00
2018-06-25T13:27:35.301Z,2.67
2018-06-25T13:30:09.372Z,1.00
2018-06-25T13:32:38.706Z,0.60
2018-06-25T13:35:07.208Z,2.60
2018-06-25T13:37:35.818Z,1.70
2018-06-25T13:40:06.825Z,1.23
2018-06-25T13:42:35.272Z,2.30
2018-06-25T13:45:03.810Z,2.10
2018-06-25T13:47:33.176Z,0.87
2018-06-25T13:50:01.744Z,1.73
2018-06-25T13:52:30.215Z,1.23
2018-06-25T13:54:59.418Z,1.67
2018-06-25T13:57:28.382Z,6.13
2018-06-25T13:59:59.012Z,1.32
2018-06-25T14:02:28.455Z,2.03
2018-06-25T14:04:56.934Z,1.60
2018-06-25T14:07:25.426Z,0.63
2018-06-25T14:09:53.861Z,1.97
2018-06-25T14:12:24.601Z,2.50
2018-06-25T14:14:53.237Z,2.50
2018-06-25T14:17:21.662Z,2.97
2018-06-25T14:19:54.185Z,2.03
2018-06-25T14:22:22.634Z,2.87
2018-06-25T14:24:55.336Z,2.67
2018-06-25T14:27:27.395Z,1.53
2018-06-25T14:29:56.929Z,2.50
2018-06-25T14:32:31.076Z,1.30
2018-06-25T14:35:05.087Z,17.27
2018-06-25T14:37:33.663Z,7.37
2018-06-25T14:40:02.208Z,3.57
2018-06-25T14:42:34.067Z,2.33
2018-06-25T14:45:51.090Z,1.63
2018-06-25T14:48:19.609Z,3.90
2018-06-25T14:50:48.076Z,9.50
2018-06-25T14:53:16.522Z,1.57
2018-06-25T14:55:45.060Z,2.50
2018-06-25T14:58:13.374Z,2.27
2018-06-25T15:00:41.712Z,1.90
2018-06-25T15:03:10.786Z,2.07
2018-06-25T15:05:40.252Z,1.00
2018-06-25T15:08:10.432Z,2.27
2018-06-25T15:10:39.360Z,1.77
2018-06-25T15:13:07.800Z,3.03
2018-06-25T15:15:36.884Z,5.20
2018-06-25T15:18:06.409Z,2.00
2018-06-25T15:20:35.168Z,1.27
2018-06-25T15:23:03.463Z,1.60
2018-06-25T15:25:32.227Z,1.23
2018-06-25T15:28:00.535Z,2.23
2018-06-25T15:30:29.162Z,1.33
2018-06-25T15:32:57.639Z,0.93
2018-06-25T15:35:26.086Z,0.93
2018-06-25T15:37:54.596Z,1.90
2018-06-25T15:40:23.695Z,2.73
2018-06-25T15:42:52.016Z,0.80
2018-06-25T15:45:20.609Z,2.37
2018-06-25T15:47:49.561Z,1.30
2018-06-25T15:50:18.335Z,1.60
2018-06-25T15:52:47.125Z,1.70
2018-06-25T15:55:16.482Z,1.20
2018-06-25T15:57:46.766Z,1.73
2018-06-25T16:00:15.284Z,0.93
2018-06-25T16:02:43.675Z,2.20
2018-06-25T16:05:12.519Z,0.97
2018-06-25T16:07:41.078Z,2.23
2018-06-25T16:10:09.730Z,1.97
2018-06-25T16:12:38.748Z,2.30
2018-06-25T16:15:11.085Z,1.63
2018-06-25T16:17:39.516Z,0.73
2018-06-25T16:20:10.205Z,1.37
2018-06-25T16:22:38.742Z,0.97
2018-06-25T16:25:07.525Z,1.60
2018-06-25T16:27:36.446Z,1.30
2018-06-25T16:30:06.090Z,0.80
2018-06-25T16:32:36.043Z,0.90
2018-06-25T16:35:05.139Z,1.33
2018-06-25T16:37:33.694Z,2.13
2018-06-25T16:40:02.927Z,0.97
2018-06-25T16:42:31.825Z,2.27
2018-06-25T16:45:01.177Z,1.83
2018-06-25T16:47:32.490Z,0.83
2018-06-25T16:50:01.363Z,0.67
2018-06-25T16:52:30.435Z,0.72
2018-06-25T16:54:58.981Z,1.03
2018-06-25T16:57:27.880Z,0.70
2018-06-25T16:59:56.483Z,0.60
2018-06-25T17:02:25.385Z,0.73
2018-06-25T17:04:54.131Z,0.97
2018-06-25T17:07:23.106Z,1.07
2018-06-25T17:09:56.433Z,1.83
2018-06-25T17:12:25.067Z,1.93
2018-06-25T17:14:53.542Z,1.20
2018-06-25T17:17:25.684Z,1.70
2018-06-25T17:19:54.232Z,0.67
2018-06-25T17:22:22.769Z,0.80
2018-06-25T17:24:51.391Z,11.27
2018-06-25T17:27:20.917Z,9.00
2018-06-25T17:29:49.823Z,16.53
2018-06-25T17:32:18.671Z,13.47
2018-06-25T17:34:47.503Z,42.90
2018-06-25T17:37:16.415Z,8.63
2018-06-25T17:39:45.286Z,17.67
2018-06-25T17:42:14.385Z,5.60
2018-06-25T17:44:43.426Z,5.67
2018-06-25T17:47:25.554Z,4.47
2018-06-25T17:49:55.049Z,5.17
2018-06-25T17:52:25.532Z,21.70
2018-06-25T17:55:09.877Z,3.17
2018-06-25T17:57:38.540Z,4.00
2018-06-25T18:00:07.367Z,3.13
2018-06-25T18:02:35.888Z,3.10
2018-06-25T18:05:04.319Z,4.07
2018-06-25T18:07:32.953Z,3.20
2018-06-25T18:10:02.097Z,1.50
2018-06-25T18:12:30.605Z,4.23
2018-06-25T18:15:04.101Z,1.80
2018-06-25T18:17:38.425Z,4.20
2018-06-25T18:20:10.682Z,2.77
2018-06-25T18:22:40.530Z,3.40
2018-06-25T18:25:09.122Z,6.00
2018-06-25T18:27:41.338Z,1.90
2018-06-25T18:30:15.052Z,2.00
2018-06-25T18:32:47.372Z,12.33
2018-06-25T18:35:16.086Z,3.83
2018-06-25T18:37:56.990Z,11.43
2018-06-25T18:40:25.501Z,4.33
2018-06-25T18:42:54.053Z,4.13
2018-06-25T18:45:22.808Z,7.67
2018-06-25T18:47:51.229Z,4.63
2018-06-25T18:50:19.828Z,5.70
2018-06-25T18:52:49.589Z,1.80
2018-06-25T18:55:18.038Z,4.37
2018-06-25T18:57:47.279Z,3.03
2018-06-25T19:00:21.828Z,2.37
2018-06-25T19:02:52.290Z,18.43
2018-06-25T19:05:21.632Z,8.53
2018-06-25T19:07:55.031Z,1.87
2018-06-25T19:10:24.823Z,5.03
2018-06-25T19:12:52.948Z,4.63
2018-06-25T19:15:23.973Z,3.17
2018-06-25T19:17:52.840Z,2.47
2018-06-25T19:20:22.159Z,2.57
2018-06-25T19:22:52.885Z,6.17
2018-06-25T19:25:23.622Z,7.47
2018-06-25T19:27:52.591Z,2.10
2018-06-25T19:30:22.804Z,2.57
2018-06-25T19:32:51.676Z,2.13
2018-06-25T19:35:20.546Z,1.90
2018-06-25T19:37:49.698Z,3.10
2018-06-25T19:40:18.177Z,3.53
2018-06-25T19:42:47.073Z,4.60
2018-06-25T19:45:15.537Z,8.77
2018-06-25T19:47:43.921Z,3.60
2018-06-25T19:50:12.431Z,10.13
2018-06-25T19:52:41.153Z,11.27
2018-06-25T19:55:09.490Z,9.17
2018-06-25T19:57:38.218Z,7.23
2018-06-25T20:00:11.671Z,7.00
2018-06-25T20:02:40.493Z,7.43
2018-06-25T20:05:08.789Z,16.00
2018-06-25T20:07:37.259Z,15.77
2018-06-25T20:10:06.438Z,23.63
2018-06-25T20:12:34.860Z,12.07
2018-06-25T20:15:04.095Z,15.63
2018-06-25T20:17:32.707Z,30.20
2018-06-25T20:20:01.709Z,26.57
2018-06-25T20:22:31.196Z,15.87
2018-06-25T20:25:00.212Z,6.83
2018-06-25T20:27:29.029Z,7.27
2018-06-25T20:29:58.274Z,8.17
2018-06-25T20:32:27.099Z,6.70
2018-06-25T20:34:55.738Z,5.70
2018-06-25T20:37:24.310Z,5.97
2018-06-25T20:39:52.707Z,5.43
2018-06-25T20:42:21.937Z,3.17
2018-06-25T20:44:50.508Z,3.63
2018-06-25T20:47:18.935Z,2.83
2018-06-25T20:49:47.478Z,4.83
2018-06-25T20:52:16.250Z,4.53
2018-06-25T20:54:44.760Z,4.13
2018-06-25T20:57:13.607Z,2.97
2018-06-25T20:59:41.905Z,2.90
2018-06-25T21:02:10.384Z,3.90
2018-06-25T21:04:45.640Z,2.90
2018-06-25T21:07:14.412Z,3.50
2018-06-25T21:09:42.903Z,6.20
2018-06-25T21:12:11.344Z,4.50
2018-06-25T21:14:39.946Z,3.80
2018-06-25T21:17:08.344Z,4.17
2018-06-25T21:19:36.997Z,3.10
2018-06-25T21:22:05.136Z,3.20
2018-06-25T21:24:33.499Z,3.47
2018-06-25T21:27:03.402Z,4.10
2018-06-25T21:29:32.178Z,3.60
2018-06-25T21:32:00.740Z,10.63
2018-06-25T21:34:29.224Z,18.83
2018-06-25T21:36:57.877Z,19.30
2018-06-25T21:39:27.007Z,8.03
2018-06-25T21:41:55.449Z,5.07
2018-06-25T21:44:23.891Z,6.10
2018-06-25T21:46:52.321Z,5.87
2018-06-25T21:49:22.662Z,6.00
2018-06-25T21:51:51.485Z,5.73
2018-06-25T21:54:19.879Z,4.37
2018-06-25T21:56:48.259Z,6.03
2018-06-25T21:59:16.629Z,5.30
2018-06-25T22:01:54.778Z,6.33
2018-06-25T22:04:23.366Z,5.20
2018-06-25T22:06:51.938Z,5.00
2018-06-25T22:09:20.620Z,4.93
2018-06-25T22:11:50.022Z,4.97
2018-06-25T22:14:18.722Z,5.33
2018-06-25T22:16:47.324Z,4.17
2018-06-25T22:19:15.773Z,3.80
2018-06-25T22:21:44.482Z,3.00
2018-06-25T22:24:13.188Z,3.20
2018-06-25T22:26:41.632Z,2.43
2018-06-25T22:29:11.082Z,3.00
2018-06-25T22:31:41.281Z,3.30
2018-06-25T22:34:09.904Z,2.70
2018-06-25T22:36:40.578Z,2.50
2018-06-25T22:39:10.721Z,3.70
2018-06-25T22:41:40.045Z,3.33
2018-06-25T22:44:09.781Z,2.87
2018-06-25T22:46:39.481Z,3.13
2018-06-25T22:49:08.549Z,2.93
2018-06-25T22:51:37.196Z,4.77
2018-06-25T22:54:06.810Z,3.37
2018-06-25T22:56:35.760Z,5.43
2018-06-25T22:59:04.739Z,3.10
2018-06-25T23:01:33.296Z,2.97
2018-06-25T23:04:01.634Z,2.87
2018-06-25T23:06:30.198Z,3.50
2018-06-25T23:08:58.674Z,4.10
2018-06-25T23:11:27.392Z,2.47
2018-06-25T23:13:55.771Z,2.80
2018-06-25T23:16:24.155Z,3.03
2018-06-25T23:18:52.999Z,4.60
2018-06-25T23:21:21.309Z,3.77
2018-06-25T23:23:49.555Z,3.07
2018-06-25T23:26:18.007Z,2.87
2018-06-25T23:28:46.455Z,2.80
2018-06-25T23:31:15.024Z,2.23
2018-06-25T23:33:46.841Z,2.97
2018-06-25T23:36:15.647Z,3.07
2018-06-25T23:38:44.239Z,2.80
2018-06-25T23:41:15.177Z,2.67
2018-06-25T23:43:43.540Z,3.87
2018-06-25T23:46:12.041Z,4.17
2018-06-25T23:48:40.327Z,2.50
2018-06-25T23:51:15.150Z,5.10
2018-06-25T23:53:43.673Z,3.00
2018-06-25T23:56:12.247Z,2.10
2018-06-25T23:58:40.827Z,2.50
